createdAt,value
2018-02-09T00:01:17.491Z,64.80
2018-02-09T00:03:45.818Z,61.60
2018-02-09T00:06:14.989Z,67.43
2018-02-09T00:08:43.494Z,64.03
2018-02-09T00:11:12.622Z,64.77
2018-02-09T00:13:41.035Z,67.23
2018-02-09T00:16:09.381Z,64.33
2018-02-09T00:18:37.761Z,69.60
2018-02-09T00:21:06.151Z,77.13
2018-02-09T00:23:34.514Z,69.43
2018-02-09T00:26:02.860Z,69.40
2018-02-09T00:28:31.162Z,70.80
2018-02-09T00:30:59.478Z,73.07
2018-02-09T00:33:27.878Z,78.93
2018-02-09T00:35:57.036Z,70.37
2018-02-09T00:38:25.433Z,72.47
2018-02-09T00:40:53.748Z,75.30
2018-02-09T00:43:22.087Z,74.97
2018-02-09T00:45:50.406Z,72.70
2018-02-09T00:48:20.965Z,71.20
2018-02-09T00:50:49.596Z,71.23
2018-02-09T00:53:18.691Z,71.03
2018-02-09T00:55:47.827Z,74.63
2018-02-09T00:58:16.138Z,71.60
2018-02-09T01:00:44.491Z,71.10
2018-02-09T01:03:12.845Z,72.20
2018-02-09T01:05:41.226Z,80.13
2018-02-09T01:08:09.559Z,73.10
2018-02-09T01:10:37.919Z,67.87
2018-02-09T01:13:06.247Z,74.27
2018-02-09T01:15:37.535Z,72.00
2018-02-09T01:18:05.878Z,79.17
2018-02-09T01:20:34.201Z,67.43
2018-02-09T01:23:02.543Z,72.53
2018-02-09T01:25:30.880Z,69.80
2018-02-09T01:27:59.334Z,75.77
2018-02-09T01:30:27.659Z,69.77
2018-02-09T01:32:56.769Z,71.13
2018-02-09T01:35:25.091Z,73.23
2018-02-09T01:37:53.563Z,73.77
2018-02-09T01:40:21.915Z,73.73
2018-02-09T01:42:50.234Z,74.23
2018-02-09T01:45:18.598Z,77.20
2018-02-09T01:47:46.931Z,75.93
2018-02-09T01:50:16.066Z,74.40
2018-02-09T01:52:44.394Z,75.03
2018-02-09T01:55:13.702Z,73.07
2018-02-09T01:57:42.047Z,75.97
2018-02-09T02:00:10.385Z,73.20
2018-02-09T02:02:40.032Z,73.40
2018-02-09T02:05:08.372Z,75.03
2018-02-09T02:07:36.719Z,77.37
2018-02-09T02:10:05.807Z,75.07
2018-02-09T02:12:35.023Z,76.87
2018-02-09T02:15:03.358Z,73.67
2018-02-09T02:17:31.706Z,75.07
2018-02-09T02:20:00.074Z,74.13
2018-02-09T02:22:28.426Z,72.97
2018-02-09T02:24:56.754Z,77.00
2018-02-09T02:27:25.132Z,77.97
2018-02-09T02:29:53.471Z,75.43
2018-02-09T02:32:21.778Z,75.97
2018-02-09T02:34:50.139Z,74.90
2018-02-09T02:37:18.464Z,75.17
2018-02-09T02:39:46.848Z,72.30
2018-02-09T02:42:15.964Z,77.50
2018-02-09T02:44:45.618Z,75.37
2018-02-09T02:47:14.817Z,73.00
2018-02-09T02:49:43.171Z,79.00
2018-02-09T02:52:13.032Z,74.27
2018-02-09T02:54:42.152Z,74.10
2018-02-09T02:57:10.481Z,77.50
2018-02-09T02:59:38.811Z,74.43
2018-02-09T03:02:08.807Z,74.60
2018-02-09T03:04:37.894Z,73.73
2018-02-09T03:07:07.047Z,74.50
2018-02-09T03:09:35.399Z,78.73
2018-02-09T03:12:03.751Z,92.93
2018-02-09T03:14:32.846Z,80.37
2018-02-09T03:17:01.338Z,85.67
2018-02-09T03:19:30.424Z,82.63
2018-02-09T03:21:59.511Z,78.50
2018-02-09T03:24:28.623Z,75.83
2018-02-09T03:26:56.950Z,75.97
2018-02-09T03:29:25.382Z,78.00
2018-02-09T03:31:54.455Z,73.97
2018-02-09T03:34:23.575Z,74.77
2018-02-09T03:36:51.903Z,80.23
2018-02-09T03:39:21.868Z,74.33
2018-02-09T03:41:50.951Z,80.50
2018-02-09T03:44:20.035Z,79.97
2018-02-09T03:46:49.159Z,84.57
2018-02-09T03:49:17.493Z,82.33
2018-02-09T03:51:45.830Z,80.30
2018-02-09T03:54:14.183Z,80.03
2018-02-09T03:56:42.555Z,78.30
2018-02-09T03:59:11.043Z,76.73
2018-02-09T04:01:40.183Z,83.93
2018-02-09T04:04:08.511Z,79.33
2018-02-09T04:06:36.836Z,76.97
2018-02-09T04:09:05.207Z,76.00
2018-02-09T04:11:33.534Z,71.30
2018-02-09T04:14:02.659Z,80.60
2018-02-09T04:16:30.992Z,75.50
2018-02-09T04:19:00.114Z,75.20
2018-02-09T04:21:28.456Z,74.50
2018-02-09T04:23:56.813Z,71.40
2018-02-09T04:26:25.119Z,74.47
2018-02-09T04:28:53.462Z,65.50
2018-02-09T04:31:21.793Z,71.20
2018-02-09T04:33:50.874Z,73.20
2018-02-09T04:36:19.991Z,71.90
2018-02-09T04:38:48.307Z,72.23
2018-02-09T04:41:16.665Z,72.00
2018-02-09T04:43:44.991Z,66.97
2018-02-09T04:46:13.340Z,70.80
2018-02-09T04:48:41.658Z,70.13
2018-02-09T04:51:10.055Z,76.60
2018-02-09T04:53:38.370Z,74.27
2018-02-09T04:56:06.715Z,74.07
2018-02-09T04:58:35.091Z,72.97
2018-02-09T05:01:03.464Z,74.37
2018-02-09T05:03:31.863Z,73.73
2018-02-09T05:06:00.214Z,68.67
2018-02-09T05:08:28.583Z,69.70
2018-02-09T05:10:57.152Z,77.67
2018-02-09T05:13:26.261Z,76.40
2018-02-09T05:15:55.355Z,72.77
2018-02-09T05:18:24.512Z,73.20
2018-02-09T05:20:52.855Z,67.97
2018-02-09T05:23:21.207Z,70.63
2018-02-09T05:25:49.529Z,71.30
2018-02-09T05:28:17.841Z,74.27
2018-02-09T05:30:46.967Z,68.87
2018-02-09T05:33:15.294Z,72.27
2018-02-09T05:35:43.652Z,64.07
2018-02-09T05:38:11.999Z,72.10
2018-02-09T05:40:41.096Z,66.87
2018-02-09T05:43:09.427Z,72.50
2018-02-09T05:45:37.819Z,71.93
2018-02-09T05:48:06.914Z,70.57
2018-02-09T05:50:35.321Z,77.83
2018-02-09T05:53:03.702Z,72.30
2018-02-09T05:55:32.030Z,78.83
2018-02-09T05:58:00.376Z,68.00
2018-02-09T06:00:28.698Z,70.57
2018-02-09T06:02:57.071Z,78.33
2018-02-09T06:05:25.515Z,71.50
2018-02-09T06:07:54.053Z,66.97
2018-02-09T06:10:23.147Z,68.97
2018-02-09T06:12:52.284Z,71.27
2018-02-09T06:15:20.611Z,70.60
2018-02-09T06:17:49.712Z,68.73
2018-02-09T06:20:18.115Z,68.50
2018-02-09T06:22:46.443Z,66.17
2018-02-09T06:25:14.791Z,60.80
2018-02-09T06:27:43.126Z,63.23
2018-02-09T06:30:12.235Z,67.17
2018-02-09T06:32:41.323Z,70.20
2018-02-09T06:35:10.437Z,65.97
2018-02-09T06:37:38.787Z,66.37
2018-02-09T06:40:07.902Z,73.37
2018-02-09T06:42:36.219Z,63.03
2018-02-09T06:45:04.577Z,67.23
2018-02-09T06:47:32.945Z,67.13
2018-02-09T06:50:01.260Z,66.03
2018-02-09T06:52:29.701Z,64.77
2018-02-09T06:54:58.271Z,67.23
2018-02-09T06:57:27.410Z,62.70
2018-02-09T06:59:55.728Z,68.57
2018-02-09T07:02:24.130Z,68.63
2018-02-09T07:04:52.486Z,67.87
2018-02-09T07:07:21.583Z,64.87
2018-02-09T07:09:50.782Z,69.40
2018-02-09T07:12:19.897Z,64.13
2018-02-09T07:14:48.274Z,66.57
2018-02-09T07:17:16.624Z,67.47
2018-02-09T07:19:45.068Z,72.33
2018-02-09T07:22:13.444Z,63.47
2018-02-09T07:24:41.854Z,66.57
2018-02-09T07:27:10.265Z,70.40
2018-02-09T07:29:38.651Z,63.70
2018-02-09T07:32:07.332Z,66.77
2018-02-09T07:34:35.744Z,64.07
2018-02-09T07:37:04.904Z,66.63
2018-02-09T07:39:33.304Z,66.30
2018-02-09T07:42:01.668Z,68.60
2018-02-09T07:44:30.096Z,69.23
2018-02-09T07:46:58.468Z,66.07
2018-02-09T07:49:26.867Z,67.30
2018-02-09T07:51:55.353Z,68.37
2018-02-09T07:54:23.740Z,70.83
2018-02-09T07:56:52.136Z,65.43
2018-02-09T07:59:20.512Z,64.40
2018-02-09T08:01:48.907Z,65.47
2018-02-09T08:04:17.294Z,68.43
2018-02-09T08:06:45.713Z,73.10
2018-02-09T08:09:14.074Z,68.90
2018-02-09T08:11:42.468Z,68.23
2018-02-09T08:14:10.876Z,77.17
2018-02-09T08:16:40.522Z,73.13
2018-02-09T08:19:08.882Z,74.43
2018-02-09T08:21:37.252Z,69.13
2018-02-09T08:24:05.640Z,71.40
2018-02-09T08:26:34.019Z,74.33
2018-02-09T08:29:02.442Z,68.77
2018-02-09T08:31:31.593Z,67.03
2018-02-09T08:33:59.992Z,68.40
2018-02-09T08:36:28.368Z,67.20
2018-02-09T08:38:57.608Z,65.10
2018-02-09T08:41:26.736Z,63.30
2018-02-09T08:43:55.984Z,64.43
2018-02-09T08:46:24.357Z,65.17
2018-02-09T08:48:52.708Z,62.07
2018-02-09T08:51:21.112Z,62.23
2018-02-09T08:53:49.515Z,66.93
2018-02-09T08:56:18.000Z,69.43
2018-02-09T08:58:47.172Z,65.80
2018-02-09T09:01:15.757Z,63.10
2018-02-09T09:03:44.139Z,65.80
2018-02-09T09:06:12.807Z,62.10
2018-02-09T09:08:42.060Z,70.83
2018-02-09T09:11:10.415Z,62.27
2018-02-09T09:13:38.824Z,62.00
2018-02-09T09:16:07.376Z,60.57
2018-02-09T09:18:36.602Z,59.60
2018-02-09T09:21:05.012Z,62.53
2018-02-09T09:23:33.633Z,59.00
2018-02-09T09:26:02.760Z,60.20
2018-02-09T09:28:31.112Z,59.40
2018-02-09T09:31:00.715Z,58.87
2018-02-09T09:33:30.199Z,58.60
2018-02-09T09:35:58.611Z,54.43
2018-02-09T09:38:27.081Z,57.27
2018-02-09T09:40:55.729Z,57.90
2018-02-09T09:43:24.104Z,61.53
2018-02-09T09:45:52.500Z,58.07
2018-02-09T09:48:20.920Z,56.40
2018-02-09T09:50:49.535Z,57.00
2018-02-09T09:53:17.884Z,55.43
2018-02-09T09:55:46.328Z,55.20
2018-02-09T09:58:15.596Z,55.60
2018-02-09T10:00:44.208Z,54.00
2018-02-09T10:03:12.640Z,54.20
2018-02-09T10:05:41.008Z,55.03
2018-02-09T10:08:09.451Z,59.73
2018-02-09T10:10:38.567Z,53.70
2018-02-09T10:13:07.227Z,59.33
2018-02-09T10:15:36.345Z,56.40
2018-02-09T10:18:05.727Z,54.90
2018-02-09T10:20:34.116Z,54.93
2018-02-09T10:23:02.492Z,60.70
2018-02-09T10:25:30.936Z,56.07
2018-02-09T10:27:59.311Z,57.83
2018-02-09T10:30:27.700Z,55.17
2018-02-09T10:32:56.024Z,58.60
2018-02-09T10:35:24.404Z,55.10
2018-02-09T10:37:52.796Z,57.60
2018-02-09T10:40:21.169Z,56.90
2018-02-09T10:42:49.532Z,57.47
2018-02-09T10:45:18.676Z,53.70
2018-02-09T10:47:47.004Z,57.20
2018-02-09T10:50:15.391Z,58.33
2018-02-09T10:52:43.744Z,62.97
2018-02-09T10:55:12.916Z,57.67
2018-02-09T10:57:42.056Z,53.47
2018-02-09T11:00:10.420Z,57.87
2018-02-09T11:02:39.564Z,51.90
2018-02-09T11:05:07.901Z,53.80
2018-02-09T11:07:36.298Z,56.63
2018-02-09T11:10:10.205Z,53.13
2018-02-09T11:12:43.520Z,51.40
2018-02-09T11:15:11.946Z,51.27
2018-02-09T11:17:40.323Z,53.33
2018-02-09T11:20:09.446Z,53.30
2018-02-09T11:22:37.852Z,50.60
2018-02-09T11:25:06.206Z,52.20
2018-02-09T11:27:34.620Z,49.80
2018-02-09T11:30:02.998Z,53.73
2018-02-09T11:32:32.157Z,52.00
2018-02-09T11:35:00.553Z,46.80
2018-02-09T11:37:28.904Z,47.13
2018-02-09T11:39:58.048Z,49.30
2018-02-09T11:42:26.392Z,48.87
2018-02-09T11:44:54.802Z,48.70
2018-02-09T11:47:23.156Z,44.67
2018-02-09T11:49:51.568Z,47.97
2018-02-09T11:52:20.712Z,49.27
2018-02-09T11:54:49.100Z,51.20
2018-02-09T11:57:18.708Z,50.40
2018-02-09T11:59:47.069Z,52.33
2018-02-09T12:02:15.469Z,56.20
2018-02-09T12:04:43.821Z,47.33
2018-02-09T12:07:12.201Z,48.53
2018-02-09T12:09:40.567Z,47.53
2018-02-09T12:12:09.720Z,48.67
2018-02-09T12:14:38.082Z,47.60
2018-02-09T12:17:06.472Z,48.00
2018-02-09T12:19:34.810Z,44.60
2018-02-09T12:22:03.212Z,43.63
2018-02-09T12:24:31.566Z,43.87
2018-02-09T12:27:00.668Z,49.47
2018-02-09T12:29:29.048Z,50.27
2018-02-09T12:31:57.395Z,44.00
2018-02-09T12:34:28.135Z,48.20
2018-02-09T12:36:57.252Z,54.53
2018-02-09T12:39:25.636Z,52.87
2018-02-09T12:41:53.984Z,49.07
2018-02-09T12:44:23.176Z,46.13
2018-02-09T12:46:51.557Z,51.27
2018-02-09T12:49:19.961Z,50.93
2018-02-09T12:51:48.356Z,45.10
2018-02-09T12:54:16.704Z,46.33
2018-02-09T12:56:45.142Z,47.73
2018-02-09T12:59:13.501Z,47.60
2018-02-09T13:01:41.908Z,49.03
2018-02-09T13:04:10.306Z,52.57
2018-02-09T13:06:39.448Z,54.30
2018-02-09T13:09:07.796Z,47.50
2018-02-09T13:11:36.202Z,44.77
2018-02-09T13:14:04.560Z,50.50
2018-02-09T13:16:32.916Z,52.27
2018-02-09T13:19:02.068Z,49.43
2018-02-09T13:21:30.714Z,56.20
2018-02-09T13:24:10.760Z,50.00
2018-02-09T13:26:39.124Z,47.73
2018-02-09T13:29:08.268Z,48.10
2018-02-09T13:31:36.636Z,49.30
2018-02-09T13:34:05.255Z,49.60
2018-02-09T13:50:00.209Z,54.43
2018-02-09T13:52:28.617Z,43.37
2018-02-09T13:54:56.969Z,48.83
2018-02-09T13:57:25.368Z,44.70
2018-02-09T13:59:53.729Z,45.13
2018-02-09T14:02:22.112Z,44.73
2018-02-09T14:04:50.450Z,48.87
2018-02-09T14:07:18.888Z,51.20
2018-02-09T14:09:47.273Z,48.80
2018-02-09T14:12:15.640Z,46.90
2018-02-09T14:14:44.020Z,48.13
2018-02-09T14:17:12.412Z,44.90
2018-02-09T14:19:40.788Z,43.40
2018-02-09T14:22:09.905Z,42.83
2018-02-09T14:24:38.318Z,42.07
2018-02-09T14:27:07.447Z,43.07
2018-02-09T14:29:36.624Z,45.30
2018-02-09T14:32:04.984Z,49.83
2018-02-09T14:34:33.364Z,43.30
2018-02-09T14:37:01.724Z,46.73
2018-02-09T14:39:30.120Z,43.73
2018-02-09T14:41:58.490Z,43.90
2018-02-09T14:44:28.008Z,44.17
2018-02-09T14:46:56.358Z,44.50
2018-02-09T14:49:24.760Z,44.43
2018-02-09T14:51:53.186Z,45.07
2018-02-09T14:54:21.525Z,47.60
2018-02-09T14:56:49.907Z,43.77
2018-02-09T14:59:18.254Z,52.40
2018-02-09T15:01:46.675Z,49.57
2018-02-09T15:04:15.038Z,48.13
2018-02-09T15:06:43.429Z,49.10
2018-02-09T15:09:11.796Z,47.03
2018-02-09T15:11:40.230Z,46.07
2018-02-09T15:14:08.608Z,47.43
2018-02-09T15:16:38.021Z,45.10
2018-02-09T15:19:06.409Z,45.43
2018-02-09T15:21:34.749Z,50.20
2018-02-09T15:24:03.904Z,44.73
2018-02-09T15:26:32.259Z,47.30
2018-02-09T15:29:00.721Z,45.07
2018-02-09T15:31:29.119Z,45.80
2018-02-09T15:33:57.566Z,47.47
2018-02-09T15:36:25.905Z,43.87
2018-02-09T15:38:54.304Z,44.20
2018-02-09T15:41:22.676Z,47.67
2018-02-09T15:43:51.075Z,44.30
2018-02-09T15:46:20.200Z,48.60
2018-02-09T15:48:48.576Z,51.20
2018-02-09T15:51:16.963Z,51.37
2018-02-09T15:53:45.313Z,47.33
2018-02-09T15:56:14.486Z,47.43
2018-02-09T15:58:42.840Z,51.83
2018-02-09T16:01:11.228Z,52.57
2018-02-09T16:03:40.373Z,50.33
2018-02-09T16:06:08.766Z,46.30
2018-02-09T16:08:37.140Z,45.33
2018-02-09T16:11:05.507Z,46.70
2018-02-09T16:13:33.901Z,48.30
2018-02-09T16:16:02.264Z,49.53
2018-02-09T16:18:30.668Z,47.40
2018-02-09T16:20:59.045Z,49.57
2018-02-09T16:23:28.204Z,51.43
2018-02-09T16:25:56.588Z,49.93
2018-02-09T16:28:24.972Z,48.10
2018-02-09T16:30:53.340Z,49.93
2018-02-09T16:33:22.743Z,53.37
2018-02-09T16:35:51.955Z,50.37
2018-02-09T16:38:20.343Z,52.77
2018-02-09T16:40:48.834Z,45.10
2018-02-09T16:43:17.188Z,51.03
2018-02-09T16:45:45.588Z,50.93
2018-02-09T16:48:13.946Z,55.40
2018-02-09T16:50:42.356Z,50.53
2018-02-09T16:53:10.760Z,48.13
2018-02-09T16:55:40.208Z,47.60
2018-02-09T16:58:08.572Z,47.93
2018-02-09T17:00:37.475Z,49.50
2018-02-09T17:03:06.717Z,50.60
2018-02-09T17:05:35.122Z,54.13
2018-02-09T17:08:04.284Z,45.37
2018-02-09T17:10:32.670Z,47.20
2018-02-09T17:13:01.228Z,48.17
2018-02-09T17:15:29.638Z,49.90
2018-02-09T17:17:59.330Z,50.93
2018-02-09T17:20:27.776Z,56.23
2018-02-09T17:22:56.164Z,50.27
2018-02-09T17:25:24.516Z,46.93
2018-02-09T17:27:53.916Z,46.87
2018-02-09T17:30:23.104Z,49.67
2018-02-09T17:32:51.821Z,46.20
2018-02-09T17:35:20.381Z,45.73
2018-02-09T17:37:48.840Z,48.70
2018-02-09T17:40:17.337Z,47.67
2018-02-09T17:42:46.648Z,48.40
2018-02-09T17:45:15.040Z,49.70
2018-02-09T17:47:43.612Z,49.87
2018-02-09T17:50:12.025Z,48.93
2018-02-09T17:52:40.378Z,49.13
2018-02-09T17:55:08.788Z,45.70
2018-02-09T17:57:37.210Z,50.27
2018-02-09T18:00:05.597Z,51.57
2018-02-09T18:02:34.159Z,46.10
2018-02-09T18:05:03.384Z,48.77
2018-02-09T18:07:31.784Z,50.77
2018-02-09T18:10:00.324Z,47.80
2018-02-09T18:12:29.456Z,45.43
2018-02-09T18:14:57.861Z,49.90
2018-02-09T18:17:27.036Z,46.47
2018-02-09T18:19:55.436Z,46.17
2018-02-09T18:22:23.857Z,45.60
2018-02-09T18:24:52.997Z,47.27
2018-02-09T18:27:21.353Z,48.13
2018-02-09T18:29:49.742Z,51.90
2018-02-09T18:32:18.096Z,46.27
2018-02-09T18:34:46.478Z,54.90
2018-02-09T18:37:14.833Z,51.40
2018-02-09T18:39:43.982Z,49.30
2018-02-09T18:42:12.343Z,47.60
2018-02-09T18:44:40.741Z,51.97
2018-02-09T18:47:09.103Z,48.93
2018-02-09T18:49:37.486Z,48.97
2018-02-09T18:52:05.888Z,52.37
2018-02-09T18:54:34.266Z,53.40
2018-02-09T18:57:02.656Z,49.00
2018-02-09T18:59:31.813Z,49.93
2018-02-09T19:02:00.224Z,49.90
2018-02-09T19:04:28.571Z,48.80
2018-02-09T19:06:56.957Z,52.33
2018-02-09T19:09:26.029Z,53.67
2018-02-09T19:11:54.413Z,65.27
2018-02-09T19:14:22.808Z,49.53
2018-02-09T19:16:51.184Z,48.30
2018-02-09T19:19:19.596Z,48.00
2018-02-09T19:21:47.967Z,51.73
2018-02-09T19:24:16.652Z,51.53
2018-02-09T19:26:46.182Z,53.13
2018-02-09T19:29:14.552Z,50.93
2018-02-09T19:31:43.912Z,50.37
2018-02-09T19:34:12.297Z,54.67
2018-02-09T19:36:43.137Z,53.37
2018-02-09T19:39:13.125Z,55.70
2018-02-09T19:41:41.481Z,56.90
2018-02-09T19:44:11.932Z,54.90
2018-02-09T19:46:40.620Z,49.47
2018-02-09T19:49:09.236Z,50.70
2018-02-09T19:51:38.402Z,51.87
2018-02-09T19:54:06.808Z,48.23
2018-02-09T19:56:35.236Z,50.70
2018-02-09T19:59:04.722Z,54.50
2018-02-09T20:01:33.999Z,53.00
2018-02-09T20:04:02.363Z,53.90
2018-02-09T20:06:30.742Z,54.53
2018-02-09T20:09:00.348Z,50.67
2018-02-09T20:11:28.734Z,51.13
2018-02-09T20:13:57.106Z,49.10
2018-02-09T20:16:25.691Z,50.30
2018-02-09T20:18:54.073Z,51.37
2018-02-09T20:21:22.442Z,51.47
2018-02-09T20:23:51.062Z,51.23
2018-02-09T20:26:20.184Z,51.43
2018-02-09T20:28:48.583Z,50.87
2018-02-09T20:31:17.135Z,53.93
2018-02-09T20:33:45.539Z,51.80
2018-02-09T20:36:13.962Z,55.93
2018-02-09T20:38:42.312Z,52.47
2018-02-09T20:41:10.693Z,54.00
2018-02-09T20:43:39.037Z,51.60
2018-02-09T20:46:07.412Z,49.20
2018-02-09T20:48:35.791Z,48.33
2018-02-09T20:51:04.205Z,52.80
2018-02-09T20:53:32.592Z,49.00
2018-02-09T20:56:00.933Z,50.57
2018-02-09T20:58:29.296Z,49.40
2018-02-09T21:00:57.656Z,53.23
2018-02-09T21:03:26.033Z,52.57
2018-02-09T21:05:55.164Z,48.57
2018-02-09T21:08:23.669Z,52.83
2018-02-09T21:10:52.139Z,51.10
2018-02-09T21:13:20.530Z,50.30
2018-02-09T21:15:48.882Z,51.80
2018-02-09T21:18:17.331Z,50.90
2018-02-09T21:20:45.755Z,53.90
2018-02-09T21:23:14.204Z,48.27
2018-02-09T21:25:43.465Z,47.03
2018-02-09T21:28:11.857Z,50.23
2018-02-09T21:30:40.272Z,49.70
2018-02-09T21:33:08.636Z,51.47
2018-02-09T21:35:37.848Z,49.60
2018-02-09T21:38:06.413Z,45.97
2018-02-09T21:40:35.773Z,48.70
2018-02-09T21:43:04.124Z,49.43
2018-02-09T21:45:32.540Z,48.00
2018-02-09T21:48:00.945Z,47.30
2018-02-09T21:50:30.076Z,47.83
2018-02-09T21:52:59.688Z,51.00
2018-02-09T21:55:28.296Z,50.93
2018-02-09T21:57:56.668Z,47.30
2018-02-09T22:00:25.124Z,48.10
2018-02-09T22:02:53.580Z,49.93
2018-02-09T22:05:22.009Z,50.73
2018-02-09T22:07:51.074Z,50.60
2018-02-09T22:10:20.472Z,47.50
2018-02-09T22:12:49.117Z,46.73
2018-02-09T22:15:17.464Z,47.97
2018-02-09T22:17:45.868Z,48.60
2018-02-09T22:20:14.268Z,48.07
2018-02-09T22:22:43.688Z,48.27
2018-02-09T22:25:12.220Z,50.53
2018-02-09T22:27:41.292Z,51.33
2018-02-09T22:30:09.684Z,48.30
2018-02-09T22:32:38.045Z,48.87
2018-02-09T22:35:06.463Z,48.57
2018-02-09T22:37:35.597Z,52.73
2018-02-09T22:40:04.293Z,54.57
2018-02-09T22:42:32.880Z,55.23
2018-02-09T22:45:01.447Z,54.47
2018-02-09T22:47:29.893Z,51.77
2018-02-09T22:49:59.004Z,46.47
2018-02-09T22:52:27.480Z,47.47
2018-02-09T22:54:57.590Z,49.33
2018-02-09T22:57:26.028Z,52.60
2018-02-09T22:59:54.409Z,53.00
2018-02-09T23:02:24.095Z,48.30
2018-02-09T23:04:53.381Z,50.47
2018-02-09T23:07:21.769Z,49.87
2018-02-09T23:09:50.160Z,52.60
2018-02-09T23:12:18.534Z,56.17
2018-02-09T23:14:46.913Z,53.20
2018-02-09T23:17:15.288Z,47.87
2018-02-09T23:19:43.654Z,48.53
2018-02-09T23:22:12.032Z,48.47
2018-02-09T23:24:40.416Z,49.83
2018-02-09T23:27:08.858Z,46.67
2018-02-09T23:29:38.032Z,47.47
2018-02-09T23:32:06.426Z,49.10
2018-02-09T23:34:35.469Z,50.17
2018-02-09T23:37:03.921Z,49.87
2018-02-09T23:39:33.036Z,46.80
2018-02-09T23:42:01.416Z,44.27
2018-02-09T23:44:29.766Z,45.03
2018-02-09T23:46:58.870Z,48.83
2018-02-09T23:49:28.012Z,44.30
2018-02-09T23:51:56.401Z,45.90
2018-02-09T23:54:25.568Z,50.20
2018-02-09T23:56:53.952Z,47.50
2018-02-09T23:59:22.377Z,46.83
